Brighton, Michigan
Current Conditions -  °F | °C
As of 10:34 AM on Monday 24 Nov 2014 (Local Time) from KOZW Reporting Station
Overcast Overcast  
Wind Chill: 55°   Ceiling: 2200
Heat Index: 55°   Visibility: 10mi
Dew Point: 52°   Wind: 12mph
Humidity: 92%   Direction: 180°S
Pressure: 29.08"   Gusts: 16mph
Location:  42.53°N, 83.78°W
Report Text: KOZW 241534Z AUTO 18010G14KT 10SM SCT017 BKN022 OVC029 13/11 A2908 RMK AO2 T01250112
Loading
Personal Weather Stations






























Interactive Weather Map New forecast layout! Learn more

10-Day Weather Forecast

Advertisements
Track Severe Weather on mobile